Lakeville, Connecticut
Current Conditions -  °F | °C
As of 1:53 PM on Monday 22 Dec 2014 (Local Time) from KPOU Reporting Station
Overcast Overcast  
Wind Chill: 39°   Ceiling: 3000
Heat Index: 39°   Visibility: 10mi
Dew Point: 32°   Wind: 3mph
Humidity: 76%   Direction: 340°NNW
Pressure: 30.25"   Gusts: NA
Location:  41.96°N, 73.44°W
Report Text: KPOU 221853Z 34003KT 10SM BKN030 OVC043 04/00 A3025 RMK AO2 SLP242 T00390000
Loading
Personal Weather Stations






























Interactive Weather Map New forecast layout! Learn more

10-Day Weather Forecast

Advertisements
Track Severe Weather on mobile